createdAt,value
2022-12-09T00:01:21.545Z,14.25
2022-12-09T00:03:49.879Z,14.93
2022-12-09T00:06:25.626Z,15.85
2022-12-09T00:08:53.690Z,14.13
2022-12-09T00:11:22.842Z,13.95
2022-12-09T00:13:56.967Z,13.63
2022-12-09T00:16:25.541Z,15.70
2022-12-09T00:18:53.284Z,15.00
2022-12-09T00:21:34.791Z,14.18
2022-12-09T00:24:10.693Z,14.63
2022-12-09T00:26:38.051Z,16.80
2022-12-09T00:29:04.906Z,15.63
2022-12-09T00:31:36.776Z,13.65
2022-12-09T00:34:10.852Z,15.55
2022-12-09T00:36:37.733Z,16.00
2022-12-09T00:39:05.337Z,16.60
2022-12-09T00:41:34.181Z,15.85
2022-12-09T00:44:00.792Z,15.30
2022-12-09T00:46:27.952Z,15.18
2022-12-09T00:48:54.833Z,15.57
2022-12-09T00:51:25.197Z,16.83
2022-12-09T00:53:56.389Z,17.30
2022-12-09T00:56:28.414Z,16.45
2022-12-09T00:58:58.046Z,16.10
2022-12-09T01:01:26.669Z,17.30
2022-12-09T01:03:54.334Z,15.20
2022-12-09T01:06:26.232Z,17.92
2022-12-09T01:08:56.679Z,16.52
2022-12-09T01:11:29.003Z,19.60
2022-12-09T01:14:01.788Z,15.43
2022-12-09T01:16:33.841Z,15.98
2022-12-09T01:19:06.887Z,16.88
2022-12-09T01:21:35.627Z,15.63
2022-12-09T01:24:09.510Z,17.10
2022-12-09T01:26:37.629Z,15.35
2022-12-09T01:29:04.851Z,15.45
2022-12-09T01:31:31.672Z,14.35
2022-12-09T01:33:58.710Z,13.35
2022-12-09T01:36:30.550Z,14.00
2022-12-09T01:39:00.040Z,13.50
2022-12-09T01:41:29.726Z,15.02
2022-12-09T01:44:20.223Z,14.00
2022-12-09T01:46:48.546Z,14.60
2022-12-09T01:49:26.010Z,14.18
2022-12-09T01:52:11.138Z,14.70
2022-12-09T01:54:43.877Z,12.38
2022-12-09T01:57:12.005Z,12.85
2022-12-09T01:59:40.107Z,15.75
2022-12-09T02:02:16.188Z,12.30
2022-12-09T02:04:47.858Z,13.25
2022-12-09T02:07:15.064Z,13.48
2022-12-09T02:09:43.198Z,12.50
2022-12-09T02:12:57.507Z,13.05
2022-12-09T02:15:44.379Z,11.23
2022-12-09T02:18:22.444Z,12.10
2022-12-09T02:21:04.550Z,11.32
2022-12-09T02:24:03.689Z,11.50
2022-12-09T02:26:50.166Z,10.68
2022-12-09T02:30:15.449Z,10.48
2022-12-09T02:33:26.620Z,13.90
2022-12-09T02:36:22.175Z,13.65
2022-12-09T02:38:52.814Z,13.65
2022-12-09T02:41:35.705Z,15.23
2022-12-09T02:44:17.219Z,16.30
2022-12-09T02:46:46.482Z,16.55
2022-12-09T02:49:15.892Z,17.45
2022-12-09T02:51:49.461Z,17.75
2022-12-09T02:54:20.520Z,17.60
2022-12-09T02:57:10.561Z,15.95
2022-12-09T02:59:37.266Z,16.10
2022-12-09T03:02:41.201Z,16.55
2022-12-09T03:05:39.494Z,18.80
2022-12-09T03:08:51.911Z,16.05
2022-12-09T03:11:24.301Z,16.77
2022-12-09T03:14:20.938Z,16.70
2022-12-09T03:17:07.352Z,19.90
2022-12-09T03:19:47.214Z,18.60
2022-12-09T03:22:22.992Z,20.38
2022-12-09T03:25:01.109Z,19.83
2022-12-09T03:27:40.115Z,17.63
2022-12-09T03:30:11.178Z,15.98
2022-12-09T03:32:41.168Z,15.80
2022-12-09T03:35:41.403Z,14.65
2022-12-09T03:38:17.196Z,15.45
2022-12-09T03:40:50.224Z,15.88
2022-12-09T03:43:30.475Z,15.02
2022-12-09T03:45:58.995Z,17.38
2022-12-09T03:48:26.579Z,17.05
2022-12-09T03:51:10.558Z,16.45
2022-12-09T03:54:16.720Z,16.60
2022-12-09T03:56:51.967Z,16.83
2022-12-09T03:59:23.820Z,17.17
2022-12-09T04:01:53.117Z,15.48
2022-12-09T04:04:20.393Z,17.35
2022-12-09T04:06:52.351Z,15.75
2022-12-09T04:09:19.246Z,16.35
2022-12-09T04:11:47.004Z,19.15
2022-12-09T04:14:15.804Z,21.02
2022-12-09T04:16:44.517Z,17.73
2022-12-09T04:19:13.032Z,16.60
2022-12-09T04:21:40.476Z,18.70
2022-12-09T04:24:08.865Z,19.58
2022-12-09T04:26:36.203Z,16.30
2022-12-09T04:29:03.931Z,19.35
2022-12-09T04:31:30.861Z,18.65
2022-12-09T04:33:59.226Z,18.67
2022-12-09T04:36:28.434Z,15.55
2022-12-09T04:38:55.432Z,15.50
2022-12-09T04:41:22.837Z,17.35
2022-12-09T04:43:49.778Z,15.43
2022-12-09T04:46:18.675Z,16.70
2022-12-09T04:48:48.736Z,17.85
2022-12-09T04:51:17.072Z,17.25
2022-12-09T04:53:45.132Z,16.88
2022-12-09T04:56:20.730Z,17.80
2022-12-09T04:58:50.770Z,16.25
2022-12-09T05:01:28.457Z,17.35
2022-12-09T05:03:58.667Z,16.45
2022-12-09T05:06:25.985Z,20.50
2022-12-09T05:08:53.302Z,18.98
2022-12-09T05:11:23.719Z,17.85
2022-12-09T08:55:12.140Z,22.90
2022-12-09T08:57:39.075Z,20.42
2022-12-09T09:00:08.255Z,19.45
2022-12-09T09:02:35.498Z,23.30
2022-12-09T09:05:02.932Z,23.90
2022-12-09T09:07:31.956Z,25.73
2022-12-09T09:10:01.335Z,20.70
2022-12-09T09:12:28.574Z,23.00
2022-12-09T09:14:55.553Z,20.25
2022-12-09T09:17:23.737Z,20.95
2022-12-09T09:19:51.465Z,23.02
2022-12-09T09:22:18.385Z,21.52
2022-12-09T09:24:45.579Z,22.95
2022-12-09T09:27:12.291Z,17.48
2022-12-09T09:29:39.102Z,22.77
2022-12-09T09:32:06.518Z,22.15
2022-12-09T09:34:33.726Z,22.08
2022-12-09T09:37:00.644Z,23.15
2022-12-09T09:39:27.483Z,22.02
2022-12-09T09:42:08.206Z,24.98
2022-12-09T09:45:01.068Z,22.27
2022-12-09T09:47:54.333Z,22.48
2022-12-09T09:50:44.433Z,21.35
2022-12-09T09:53:35.803Z,21.13
2022-12-09T09:56:35.266Z,22.95
2022-12-09T09:59:41.892Z,21.75
2022-12-09T10:02:30.003Z,23.63
2022-12-09T10:05:28.250Z,23.50
2022-12-09T10:08:32.520Z,19.48
2022-12-09T10:11:26.084Z,22.77
2022-12-09T10:14:22.460Z,21.15
2022-12-09T10:17:33.109Z,19.85
2022-12-09T10:20:12.814Z,20.92
2022-12-09T10:23:02.395Z,19.40
2022-12-09T10:25:42.808Z,17.85
2022-12-09T10:28:42.474Z,18.88
2022-12-09T10:31:11.990Z,18.83
2022-12-09T10:33:41.003Z,17.55
2022-12-09T10:36:30.786Z,17.85
2022-12-09T10:39:03.835Z,18.50
2022-12-09T10:42:15.400Z,19.75
2022-12-09T10:44:43.179Z,17.13
2022-12-09T10:47:29.118Z,20.73
2022-12-09T10:49:58.493Z,17.10
2022-12-09T10:52:45.487Z,18.35
2022-12-09T10:55:34.999Z,17.17
2022-12-09T10:58:23.730Z,17.67
2022-12-09T11:01:13.378Z,16.15
2022-12-09T11:03:54.749Z,17.05
2022-12-09T11:06:39.969Z,16.83
2022-12-09T11:09:17.521Z,15.15
2022-12-09T11:11:51.233Z,15.75
2022-12-09T11:14:34.900Z,15.90
2022-12-09T11:17:25.183Z,16.57
2022-12-09T11:20:19.561Z,15.38
2022-12-09T11:23:06.390Z,16.05
2022-12-09T11:25:37.104Z,15.40
2022-12-09T11:28:16.688Z,15.55
2022-12-09T11:34:04.706Z,16.20
2022-12-09T11:36:46.567Z,14.95
2022-12-09T11:39:36.399Z,15.52
2022-12-09T11:42:23.071Z,16.70
2022-12-09T11:45:30.916Z,17.42
2022-12-09T11:48:31.903Z,14.93
2022-12-09T11:50:57.663Z,14.25
2022-12-09T11:53:40.595Z,15.48
2022-12-09T11:56:21.032Z,14.90
2022-12-09T11:59:07.090Z,14.43
2022-12-09T12:02:17.461Z,16.38
2022-12-09T12:05:22.373Z,15.80
2022-12-09T12:08:15.692Z,15.13
2022-12-09T12:10:54.366Z,16.38
2022-12-09T12:13:32.038Z,17.75
2022-12-09T12:16:18.839Z,16.98
2022-12-09T12:19:13.528Z,17.45
2022-12-09T12:22:08.131Z,17.55
2022-12-09T12:25:42.069Z,16.73
2022-12-09T12:28:26.642Z,15.10
2022-12-09T12:34:28.485Z,14.30
2022-12-09T12:37:44.339Z,15.70
2022-12-09T12:40:45.136Z,16.92
2022-12-09T12:44:34.773Z,17.27
2022-12-09T12:47:32.899Z,15.60
2022-12-09T12:50:32.021Z,17.30
2022-12-09T12:53:47.154Z,17.98
2022-12-09T12:57:05.017Z,15.82
2022-12-09T13:00:08.949Z,17.52
2022-12-09T13:02:53.900Z,16.88
2022-12-09T13:05:33.937Z,17.85
2022-12-09T13:08:40.618Z,18.73
2022-12-09T15:58:49.042Z,19.88
2022-12-09T16:03:55.913Z,16.65
2022-12-09T16:06:35.902Z,19.88
2022-12-09T16:09:13.012Z,20.27
2022-12-09T16:11:47.041Z,20.25
2022-12-09T16:14:16.906Z,19.88
2022-12-09T16:16:51.261Z,21.63
2022-12-09T16:19:30.792Z,20.55
2022-12-09T16:22:06.207Z,20.58
2022-12-09T16:27:37.435Z,20.73
2022-12-09T16:30:18.222Z,21.00
2022-12-09T16:32:55.505Z,20.35
2022-12-09T16:35:45.291Z,21.60
2022-12-09T16:38:14.610Z,22.85
2022-12-09T16:40:44.287Z,20.90
2022-12-09T16:43:17.604Z,23.45
2022-12-09T16:45:53.973Z,22.57
2022-12-09T16:48:24.763Z,22.25
2022-12-09T16:51:14.188Z,21.90
2022-12-09T16:53:49.867Z,22.67
2022-12-09T16:56:26.425Z,22.73
2022-12-09T16:58:55.052Z,21.00
2022-12-09T17:01:31.833Z,24.15
2022-12-09T17:04:09.855Z,22.23
2022-12-09T17:06:36.501Z,21.50
2022-12-09T17:09:03.335Z,21.50
2022-12-09T17:11:46.947Z,22.35
2022-12-09T17:14:16.118Z,23.27
2022-12-09T17:16:42.885Z,22.35
2022-12-09T17:19:09.724Z,22.63
2022-12-09T17:21:36.898Z,25.35
2022-12-09T17:24:06.824Z,23.40
2022-12-09T17:26:34.037Z,24.42
2022-12-09T17:29:02.048Z,25.38
2022-12-09T17:31:31.266Z,25.05
2022-12-09T17:33:58.138Z,22.83
2022-12-09T17:36:25.860Z,25.75
2022-12-09T17:38:52.629Z,24.42
2022-12-09T17:41:23.527Z,24.35
2022-12-09T17:43:50.458Z,25.25
2022-12-09T17:46:17.518Z,24.52
2022-12-09T17:48:44.304Z,25.25
2022-12-09T17:51:17.838Z,23.10
2022-12-09T17:53:46.920Z,25.40
2022-12-09T17:56:22.092Z,23.40
2022-12-09T17:59:03.625Z,25.85
2022-12-09T18:01:31.503Z,31.08
2022-12-09T18:04:04.618Z,25.98
2022-12-09T18:06:36.690Z,25.73
2022-12-09T18:09:07.580Z,25.63
2022-12-09T18:44:07.268Z,26.42
2022-12-09T18:46:46.637Z,26.30
2022-12-09T19:02:51.839Z,25.98
2022-12-09T19:05:19.804Z,27.98
2022-12-09T19:07:47.170Z,29.50
2022-12-09T19:10:13.804Z,27.75
2022-12-09T19:12:50.625Z,28.85
2022-12-09T19:15:20.602Z,29.90
2022-12-09T19:17:47.427Z,29.17
2022-12-09T19:20:14.085Z,29.02
2022-12-09T19:22:40.819Z,29.88
2022-12-09T19:25:08.203Z,31.45
2022-12-09T19:27:34.900Z,28.17
2022-12-09T19:30:01.643Z,27.63
2022-12-09T19:32:52.388Z,30.90
2022-12-09T19:35:15.314Z,30.95
2022-12-09T19:37:42.067Z,29.67
2022-12-09T19:40:10.509Z,31.75
2022-12-09T19:42:39.880Z,31.65
2022-12-09T19:45:12.167Z,30.40
2022-12-09T19:50:08.197Z,30.08
2022-12-09T19:52:34.996Z,34.83
2022-12-09T19:55:01.832Z,30.50
2022-12-09T19:57:28.501Z,29.30
2022-12-09T19:59:55.159Z,30.25
2022-12-09T20:02:21.937Z,29.33
2022-12-09T20:04:50.374Z,30.45
2022-12-09T20:07:18.919Z,30.27
2022-12-09T20:09:48.790Z,31.27
2022-12-09T20:12:15.789Z,29.65
2022-12-09T20:14:43.101Z,29.88
2022-12-09T20:17:10.205Z,30.75
2022-12-09T20:19:37.076Z,30.55
2022-12-09T20:22:04.098Z,34.15
2022-12-09T20:24:30.858Z,30.25
2022-12-09T20:26:57.645Z,31.92
2022-12-09T20:29:24.300Z,29.55
2022-12-09T20:31:53.270Z,32.35
2022-12-09T20:34:20.027Z,32.03
2022-12-09T20:36:49.667Z,29.48
2022-12-09T20:39:20.966Z,33.55
2022-12-09T20:41:48.953Z,43.17
2022-12-09T20:44:20.212Z,35.15
2022-12-09T20:46:52.434Z,31.80
2022-12-09T20:49:26.094Z,29.60
2022-12-09T20:51:53.204Z,29.30
2022-12-09T20:54:19.898Z,28.05
2022-12-09T20:56:50.295Z,29.00
2022-12-09T20:59:16.975Z,27.98
2022-12-09T21:01:46.906Z,30.55
2022-12-09T21:04:14.263Z,27.90
2022-12-09T21:06:42.109Z,29.52
2022-12-09T21:09:18.902Z,31.08
2022-12-09T21:11:48.928Z,30.13
2022-12-09T21:14:18.618Z,30.38
2022-12-09T21:16:49.528Z,30.13
2022-12-09T21:19:25.739Z,29.70
2022-12-09T21:21:53.622Z,30.05
2022-12-09T21:24:21.852Z,31.23
2022-12-09T21:26:48.564Z,28.65
2022-12-09T21:29:16.039Z,29.40
2022-12-09T21:31:44.322Z,30.67
2022-12-09T21:34:11.292Z,29.92
2022-12-09T21:36:42.855Z,30.52
2022-12-09T21:39:14.991Z,31.00
2022-12-09T21:41:43.597Z,31.27
2022-12-09T21:44:18.940Z,29.20
2022-12-09T21:46:46.174Z,30.38
2022-12-09T21:49:13.208Z,31.73
2022-12-09T21:51:41.000Z,29.58
2022-12-09T21:54:10.791Z,31.40
2022-12-09T21:56:37.923Z,32.20
2022-12-09T21:59:07.404Z,30.23
2022-12-09T22:01:41.990Z,31.85
2022-12-09T22:04:16.994Z,32.25
2022-12-09T22:06:51.187Z,33.45
2022-12-09T22:11:47.803Z,31.10
2022-12-09T22:35:58.202Z,28.23
2022-12-09T22:38:24.893Z,28.85
2022-12-09T22:40:51.491Z,31.05
2022-12-09T22:43:20.532Z,29.02
2022-12-09T22:45:47.350Z,32.67
2022-12-09T22:48:15.134Z,31.17
2022-12-09T22:50:41.728Z,31.83
2022-12-09T22:53:08.613Z,31.60
2022-12-09T22:55:35.290Z,30.75
2022-12-09T22:58:05.240Z,33.70
2022-12-09T23:00:32.163Z,34.20
2022-12-09T23:02:59.139Z,32.17
2022-12-09T23:05:29.139Z,32.45
2022-12-09T23:07:59.950Z,32.65
2022-12-09T23:10:26.775Z,32.50
2022-12-09T23:12:53.502Z,34.08
2022-12-09T23:15:20.167Z,36.33
2022-12-09T23:17:47.151Z,35.55
2022-12-09T23:20:13.846Z,35.55
2022-12-09T23:22:40.489Z,35.45
2022-12-09T23:25:07.992Z,34.63
2022-12-09T23:27:34.660Z,34.72
2022-12-09T23:30:01.315Z,36.25
2022-12-09T23:32:30.691Z,32.70
2022-12-09T23:34:57.352Z,32.05
2022-12-09T23:37:24.071Z,34.35
2022-12-09T23:39:50.705Z,34.10
2022-12-09T23:42:19.740Z,35.15
2022-12-09T23:44:49.718Z,32.72
2022-12-09T23:47:16.769Z,33.25
2022-12-09T23:49:43.499Z,32.30
2022-12-09T23:52:11.012Z,33.63
2022-12-09T23:54:38.070Z,32.30
2022-12-09T23:57:07.861Z,32.72
2022-12-09T23:59:34.616Z,31.52
